Time;durP1;ratioP1;P1;durP2;ratioP2;P2;SDS_P1;SDS_P2;PMS_P1;PMS_P2;Temp;Humidity;BMP_temperature;BMP_pressure;BME280_temperature;BME280_humidity;BME280_pressure;Samples;Min_cycle;Max_cycle;Signal;HPM_P1;HPM_P2
2021/06/24 00:00:46;;;;;;;25.58;17.42;;;15.80;99.90;;;;;;5093438;28;20068;-68
2021/06/24 00:03:12;;;;;;;30.77;17.90;;;15.80;99.90;;;;;;5093872;28;20461;-68
2021/06/24 00:05:39;;;;;;;24.63;17.60;;;15.80;99.90;;;;;;5094126;28;20032;-67
2021/06/24 00:08:06;;;;;;;26.13;17.95;;;15.80;99.90;;;;;;5094062;28;20446;-67
2021/06/24 00:10:32;;;;;;;23.35;17.48;;;15.80;99.90;;;;;;5094030;28;20527;-68
2021/06/24 00:12:58;;;;;;;27.60;18.73;;;15.80;99.90;;;;;;5093773;28;20061;-67
2021/06/24 00:15:23;;;;;;;23.50;18.25;;;15.80;99.90;;;;;;5094017;28;20032;-68
2021/06/24 00:17:49;;;;;;;28.90;18.00;;;15.80;99.90;;;;;;5093708;28;20027;-68
2021/06/24 00:20:15;;;;;;;33.78;18.35;;;15.80;99.90;;;;;;5093625;28;20377;-68
2021/06/24 00:22:40;;;;;;;29.95;17.52;;;15.80;99.90;;;;;;5097582;28;20023;-67
2021/06/24 00:25:07;;;;;;;26.42;19.05;;;15.80;99.90;;;;;;5096840;28;20032;-68
2021/06/24 00:27:32;;;;;;;21.38;17.25;;;15.80;99.90;;;;;;5097964;28;20020;-68
2021/06/24 00:29:58;;;;;;;24.90;18.15;;;15.80;99.90;;;;;;5097679;28;20024;-68
2021/06/24 00:32:23;;;;;;;27.65;18.45;;;15.80;99.90;;;;;;5097289;28;20024;-68
2021/06/24 00:34:49;;;;;;;27.02;17.83;;;15.70;99.90;;;;;;5097853;28;20409;-67
2021/06/24 00:37:14;;;;;;;25.13;16.65;;;15.80;99.90;;;;;;5097775;28;20469;-67
2021/06/24 00:39:40;;;;;;;25.23;18.48;;;15.70;99.90;;;;;;5096401;28;20028;-67
2021/06/24 00:42:07;;;;;;;25.98;18.83;;;15.70;99.90;;;;;;5095880;28;20427;-67
2021/06/24 00:44:32;;;;;;;26.02;17.55;;;15.70;99.90;;;;;;5097651;28;20016;-67
2021/06/24 00:46:58;;;;;;;26.75;17.65;;;15.70;99.90;;;;;;5079817;28;20039;-67
2021/06/24 00:49:23;;;;;;;25.00;19.15;;;15.70;99.90;;;;;;5097265;28;20050;-67
2021/06/24 00:51:49;;;;;;;24.67;17.83;;;15.70;99.90;;;;;;5096929;28;20032;-67
2021/06/24 00:54:14;;;;;;;24.95;18.55;;;15.70;99.90;;;;;;5097448;28;20031;-67
2021/06/24 00:56:40;;;;;;;28.30;18.52;;;15.60;99.90;;;;;;5095610;28;20042;-67
2021/06/24 00:59:06;;;;;;;25.90;17.90;;;15.60;99.90;;;;;;5096925;28;20047;-67
2021/06/24 01:01:33;;;;;;;26.45;18.30;;;15.60;99.90;;;;;;5097357;28;20020;-67
2021/06/24 01:03:59;;;;;;;29.98;17.52;;;15.60;99.90;;;;;;5097018;28;20021;-67
2021/06/24 01:06:25;;;;;;;31.13;18.80;;;15.60;99.90;;;;;;5096697;28;20028;-67
2021/06/24 01:08:50;;;;;;;25.88;17.92;;;15.60;99.90;;;;;;5095955;28;20024;-67
2021/06/24 01:11:16;;;;;;;23.48;17.60;;;15.60;99.90;;;;;;5097216;28;20028;-67
2021/06/24 01:13:44;;;;;;;28.88;18.98;;;15.50;99.90;;;;;;5097148;28;20031;-67
2021/06/24 01:16:10;;;;;;;25.88;18.88;;;15.50;99.90;;;;;;5096829;28;20028;-67
2021/06/24 01:18:35;;;;;;;28.60;19.10;;;15.50;99.90;;;;;;5097021;28;20027;-67
2021/06/24 01:21:01;;;;;;;30.20;18.35;;;15.50;99.90;;;;;;5096803;28;20028;-67
2021/06/24 01:23:27;;;;;;;28.60;19.17;;;15.50;99.90;;;;;;5095755;28;20369;-67
2021/06/24 01:25:53;;;;;;;34.97;18.50;;;15.50;99.90;;;;;;5096820;28;20020;-67
2021/06/24 01:28:18;;;;;;;29.23;18.42;;;15.50;99.90;;;;;;5096784;28;20030;-67
2021/06/24 01:30:44;;;;;;;29.40;18.13;;;15.50;99.90;;;;;;5096750;28;20028;-67
2021/06/24 01:33:11;;;;;;;29.05;18.90;;;15.40;99.90;;;;;;5094494;28;20473;-67
2021/06/24 01:35:37;;;;;;;31.58;19.40;;;15.40;99.90;;;;;;5096431;28;20046;-67
2021/06/24 01:38:05;;;;;;;35.70;20.13;;;15.40;99.90;;;;;;5095213;28;20032;-67
2021/06/24 01:40:32;;;;;;;35.53;18.92;;;15.40;99.90;;;;;;5096501;28;20022;-67
2021/06/24 01:42:59;;;;;;;27.73;18.88;;;15.40;99.90;;;;;;5096558;28;20032;-67
2021/06/24 01:45:25;;;;;;;32.17;18.80;;;15.30;99.90;;;;;;5096473;28;20016;-67
2021/06/24 01:47:52;;;;;;;23.70;18.30;;;15.30;99.90;;;;;;5096187;28;20111;-67
2021/06/24 01:50:18;;;;;;;28.85;19.20;;;15.30;99.90;;;;;;5094960;28;20047;-67
2021/06/24 01:52:45;;;;;;;27.77;17.70;;;15.30;99.90;;;;;;5096101;28;20047;-67
2021/06/24 01:55:14;;;;;;;28.83;18.27;;;15.30;99.90;;;;;;5096273;28;20032;-67
2021/06/24 01:57:40;;;;;;;40.60;19.20;;;15.30;99.90;;;;;;5095986;28;20036;-67
2021/06/24 02:00:09;;;;;;;32.45;17.95;;;15.30;99.90;;;;;;5095626;28;20044;-67
2021/06/24 02:02:35;;;;;;;26.55;17.95;;;15.30;99.90;;;;;;5096215;28;20038;-67
2021/06/24 02:05:01;;;;;;;27.55;18.30;;;15.30;99.90;;;;;;5096096;28;20020;-67
2021/06/24 02:07:27;;;;;;;35.78;19.08;;;15.30;99.90;;;;;;5096094;28;20093;-67
2021/06/24 02:09:52;;;;;;;30.35;18.42;;;15.20;99.90;;;;;;5096017;28;20024;-67
2021/06/24 02:12:18;;;;;;;29.38;18.88;;;15.20;99.90;;;;;;5095960;28;20074;-67
2021/06/24 02:14:43;;;;;;;35.30;18.02;;;15.20;99.90;;;;;;5077234;28;20031;-67
2021/06/24 02:17:09;;;;;;;32.90;18.48;;;15.20;99.90;;;;;;5094327;28;20467;-67
2021/06/24 02:19:34;;;;;;;28.27;18.27;;;15.20;99.90;;;;;;5095722;28;20097;-67
2021/06/24 02:22:00;;;;;;;34.50;18.50;;;15.20;99.90;;;;;;5093918;28;20059;-67
2021/06/24 02:24:25;;;;;;;29.63;19.33;;;15.20;99.90;;;;;;5095709;28;20020;-67
2021/06/24 02:26:51;;;;;;;28.13;18.15;;;15.20;99.90;;;;;;5095098;28;20021;-67
2021/06/24 02:29:16;;;;;;;30.20;17.73;;;15.20;99.90;;;;;;5095083;28;20032;-67
2021/06/24 02:31:42;;;;;;;30.15;17.80;;;15.20;99.90;;;;;;5094141;28;20031;-67
2021/06/24 02:34:08;;;;;;;29.25;17.60;;;15.20;99.90;;;;;;5094973;28;20102;-67
2021/06/24 02:36:34;;;;;;;27.65;17.30;;;15.20;99.90;;;;;;5093768;28;20020;-67
2021/06/24 02:38:59;;;;;;;27.73;18.90;;;15.20;99.90;;;;;;5095324;28;20032;-67
2021/06/24 02:41:25;;;;;;;31.10;18.33;;;15.20;99.90;;;;;;5095340;28;20024;-67
2021/06/24 02:43:50;;;;;;;28.58;18.77;;;15.20;99.90;;;;;;5093941;28;20028;-67
2021/06/24 02:46:16;;;;;;;29.98;18.05;;;15.20;99.90;;;;;;5094749;28;20069;-67
2021/06/24 02:48:41;;;;;;;27.30;18.27;;;15.10;99.90;;;;;;5095259;28;20026;-67
2021/06/24 02:51:07;;;;;;;28.20;19.08;;;15.10;99.90;;;;;;5094608;28;20036;-67
2021/06/24 02:53:32;;;;;;;30.60;18.77;;;15.10;99.90;;;;;;5094860;28;20366;-67
2021/06/24 02:55:58;;;;;;;33.42;18.60;;;15.10;99.90;;;;;;5095123;28;20038;-67
2021/06/24 02:58:24;;;;;;;36.30;19.83;;;15.10;99.90;;;;;;5094477;28;20028;-67
2021/06/24 03:00:49;;;;;;;27.95;18.58;;;15.10;99.90;;;;;;5095064;28;20108;-67
2021/06/24 03:03:15;;;;;;;34.00;18.65;;;15.10;99.90;;;;;;5094940;28;20020;-67
2021/06/24 03:05:40;;;;;;;29.20;18.35;;;15.10;99.90;;;;;;5094931;28;20035;-67
2021/06/24 03:08:06;;;;;;;29.27;17.70;;;15.10;99.90;;;;;;5094886;28;20174;-67
2021/06/24 03:10:32;;;;;;;30.02;18.02;;;15.10;99.90;;;;;;5094824;28;20417;-67
2021/06/24 03:12:58;;;;;;;35.05;19.58;;;15.10;99.90;;;;;;5094861;28;20453;-67
2021/06/24 03:15:23;;;;;;;32.90;18.48;;;15.00;99.90;;;;;;5094217;28;20028;-67
2021/06/24 03:17:50;;;;;;;27.50;17.67;;;15.00;99.90;;;;;;5094713;28;20113;-67
2021/06/24 03:20:16;;;;;;;33.30;17.67;;;15.00;99.90;;;;;;5094659;28;20025;-67
2021/06/24 03:22:42;;;;;;;31.48;18.23;;;15.10;99.90;;;;;;5094368;28;20020;-67
2021/06/24 03:25:12;;;;;;;33.28;17.27;;;15.10;99.90;;;;;;5094627;28;20024;-67
2021/06/24 03:27:37;;;;;;;31.75;17.52;;;15.00;99.90;;;;;;5094602;28;20020;-67
2021/06/24 03:30:05;;;;;;;32.40;17.77;;;15.10;99.90;;;;;;5094537;28;20038;-67
2021/06/24 03:32:31;;;;;;;26.33;17.13;;;15.10;99.90;;;;;;5094229;28;20024;-67
2021/06/24 03:34:56;;;;;;;23.98;17.27;;;15.10;99.90;;;;;;5092638;28;20557;-67
2021/06/24 03:37:22;;;;;;;27.13;17.05;;;15.10;99.90;;;;;;5094136;28;20027;-67
2021/06/24 03:39:48;;;;;;;28.50;17.45;;;15.10;99.90;;;;;;5094075;28;20081;-67
2021/06/24 03:42:14;;;;;;;30.30;17.63;;;15.10;99.90;;;;;;5093813;28;20016;-67
2021/06/24 03:44:40;;;;;;;28.58;16.52;;;15.10;99.90;;;;;;5094345;28;20027;-67
2021/06/24 03:47:05;;;;;;;29.70;16.42;;;15.10;99.90;;;;;;5094287;28;20020;-67
2021/06/24 03:49:31;;;;;;;30.38;16.23;;;15.10;99.90;;;;;;5092416;28;20154;-67
2021/06/24 03:51:56;;;;;;;32.17;16.98;;;15.10;99.90;;;;;;5094211;28;20480;-67
2021/06/24 03:54:22;;;;;;;29.67;16.92;;;15.10;99.90;;;;;;5093986;28;20035;-67
2021/06/24 03:56:47;;;;;;;29.00;17.23;;;15.10;99.90;;;;;;5094116;28;20031;-67
2021/06/24 03:59:13;;;;;;;34.85;17.23;;;15.10;99.90;;;;;;5093725;28;20056;-67
2021/06/24 04:01:42;;;;;;;24.95;17.30;;;15.10;99.90;;;;;;5092407;28;20020;-67
2021/06/24 04:04:09;;;;;;;27.60;16.10;;;15.10;99.90;;;;;;5093914;28;20012;-67
2021/06/24 04:06:35;;;;;;;31.30;15.95;;;15.10;99.90;;;;;;5093609;28;20028;-67
2021/06/24 04:09:01;;;;;;;26.25;16.05;;;15.20;99.90;;;;;;5092269;28;20021;-67
2021/06/24 04:11:27;;;;;;;29.10;15.57;;;15.10;99.90;;;;;;5094067;28;20042;-67
2021/06/24 04:13:52;;;;;;;28.30;17.02;;;15.10;99.90;;;;;;5093458;28;20099;-67
2021/06/24 04:16:17;;;;;;;24.33;16.00;;;15.20;99.90;;;;;;5093731;28;20036;-68
2021/06/24 04:18:43;;;;;;;29.90;16.27;;;15.20;99.90;;;;;;5092537;28;20046;-67
2021/06/24 04:21:08;;;;;;;24.30;15.20;;;15.20;99.90;;;;;;5092657;28;20035;-67
2021/06/24 04:23:34;;;;;;;28.20;16.63;;;15.20;99.90;;;;;;5092764;28;20035;-67
2021/06/24 04:26:00;;;;;;;24.85;16.80;;;15.20;99.90;;;;;;5093610;28;20020;-67
2021/06/24 04:28:25;;;;;;;34.95;15.80;;;15.20;99.90;;;;;;5093876;28;20056;-67
2021/06/24 04:30:52;;;;;;;30.13;17.70;;;15.30;99.90;;;;;;5092022;28;20032;-67
2021/06/24 04:33:17;;;;;;;30.27;17.77;;;15.30;99.90;;;;;;5093941;28;20032;-67
2021/06/24 04:35:43;;;;;;;33.55;18.23;;;15.30;99.90;;;;;;5093835;28;20028;-67
2021/06/24 04:38:08;;;;;;;27.35;17.33;;;15.30;99.90;;;;;;5092004;28;20035;-67
2021/06/24 04:40:34;;;;;;;26.83;17.00;;;15.30;99.90;;;;;;5093158;28;20148;-67
2021/06/24 04:43:00;;;;;;;31.30;17.90;;;15.40;99.90;;;;;;5093759;28;20020;-67
2021/06/24 04:45:25;;;;;;;28.08;17.17;;;15.30;99.90;;;;;;5093447;28;20070;-67
2021/06/24 04:47:51;;;;;;;30.60;17.23;;;15.30;99.90;;;;;;5093061;28;20524;-67
2021/06/24 04:50:17;;;;;;;29.60;16.55;;;15.30;99.90;;;;;;5093687;28;20048;-67
2021/06/24 04:52:42;;;;;;;29.38;16.30;;;15.30;99.90;;;;;;5093360;28;20034;-68
2021/06/24 04:55:08;;;;;;;27.00;15.75;;;15.40;99.90;;;;;;5092502;28;20589;-67
2021/06/24 04:57:35;;;;;;;28.30;17.23;;;15.40;99.90;;;;;;5092456;28;20048;-67
2021/06/24 05:00:00;;;;;;;26.58;16.75;;;15.40;99.90;;;;;;5092901;28;20055;-67
2021/06/24 05:02:26;;;;;;;26.95;16.40;;;15.50;99.90;;;;;;5093292;28;20016;-67
2021/06/24 05:04:51;;;;;;;32.40;16.65;;;15.50;99.90;;;;;;5093517;28;20024;-67
2021/06/24 05:07:17;;;;;;;28.45;16.45;;;15.60;99.90;;;;;;5094339;28;20027;-68
2021/06/24 05:09:44;;;;;;;28.63;15.38;;;15.60;99.90;;;;;;5097196;28;20024;-67
2021/06/24 05:12:10;;;;;;;28.80;15.65;;;15.70;99.90;;;;;;5095372;28;20432;-67
2021/06/24 05:14:37;;;;;;;27.08;13.85;;;15.70;99.90;;;;;;5097072;28;20016;-67
2021/06/24 05:17:05;;;;;;;27.05;15.38;;;15.70;99.90;;;;;;5078542;28;20024;-67
2021/06/24 05:19:33;;;;;;;29.90;15.18;;;15.80;99.90;;;;;;5096943;28;20105;-67
2021/06/24 05:21:58;;;;;;;21.63;14.70;;;16.00;99.90;;;;;;5078324;28;20016;-67
2021/06/24 05:24:24;;;;;;;23.15;15.15;;;15.90;99.90;;;;;;5096877;28;20192;-67
2021/06/24 05:26:49;;;;;;;29.88;15.43;;;16.00;99.90;;;;;;5078177;28;20027;-67
2021/06/24 05:29:15;;;;;;;28.60;14.88;;;16.10;99.90;;;;;;5096836;28;20457;-67
2021/06/24 05:31:41;;;;;;;25.88;16.73;;;16.00;99.90;;;;;;5096214;28;20020;-67
2021/06/24 05:34:06;;;;;;;26.83;16.48;;;15.80;99.90;;;;;;5094869;28;20016;-67
2021/06/24 05:36:33;;;;;;;29.15;17.38;;;15.60;99.90;;;;;;5096626;28;20419;-67
2021/06/24 05:38:59;;;;;;;25.38;16.40;;;15.60;99.90;;;;;;5096384;28;20355;-67
2021/06/24 05:41:24;;;;;;;25.63;16.25;;;15.60;99.90;;;;;;5095318;28;20028;-67
2021/06/24 05:43:50;;;;;;;29.92;17.65;;;15.60;99.90;;;;;;5096477;28;20028;-67
2021/06/24 05:46:16;;;;;;;30.83;17.50;;;15.60;99.90;;;;;;5095335;28;20016;-67
2021/06/24 05:48:41;;;;;;;28.02;15.68;;;15.60;99.90;;;;;;5096181;28;20024;-67
2021/06/24 05:51:07;;;;;;;29.48;16.98;;;15.60;99.90;;;;;;5094989;28;20446;-67
2021/06/24 05:53:32;;;;;;;25.42;16.42;;;15.60;99.90;;;;;;5096302;28;20532;-67
2021/06/24 05:55:58;;;;;;;25.95;16.77;;;15.60;99.90;;;;;;5096017;28;20086;-67
2021/06/24 05:58:27;;;;;;;30.08;17.13;;;15.60;99.90;;;;;;5096215;28;20027;-67
2021/06/24 06:00:56;;;;;;;25.42;17.15;;;15.50;99.90;;;;;;5094254;28;20078;-67
2021/06/24 06:03:23;;;;;;;36.55;17.20;;;15.50;99.90;;;;;;5094716;28;20021;-67
2021/06/24 06:05:50;;;;;;;34.63;18.70;;;15.40;99.90;;;;;;5095971;28;20013;-67
2021/06/24 06:08:16;;;;;;;34.35;18.67;;;15.40;99.90;;;;;;5094567;28;20016;-67
2021/06/24 06:10:42;;;;;;;25.48;17.63;;;15.30;99.90;;;;;;5095963;28;20028;-67
2021/06/24 06:13:09;;;;;;;34.22;18.20;;;15.40;99.90;;;;;;5095932;28;20376;-67
2021/06/24 06:15:37;;;;;;;30.52;18.65;;;15.40;99.90;;;;;;5104940;28;20016;-67
2021/06/24 06:18:13;;;;;;;35.13;19.17;;;15.40;99.90;;;;;;5115541;28;20027;-67
2021/06/24 06:20:40;;;;;;;31.60;18.13;;;15.40;99.90;;;;;;5095803;28;20028;-67
2021/06/24 06:23:06;;;;;;;30.02;18.88;;;15.40;99.90;;;;;;5095862;28;20037;-67
2021/06/24 06:25:31;;;;;;;26.05;17.98;;;15.40;99.90;;;;;;5095603;28;20027;-67
2021/06/24 06:27:57;;;;;;;27.50;17.70;;;15.50;99.90;;;;;;5095103;28;20424;-67
2021/06/24 06:30:25;;;;;;;32.00;18.92;;;15.50;99.90;;;;;;5093684;28;20055;-67
2021/06/24 06:32:51;;;;;;;26.67;19.60;;;15.50;99.90;;;;;;5095162;28;20032;-67
2021/06/24 06:35:16;;;;;;;37.63;19.30;;;15.60;99.90;;;;;;5094966;28;20028;-67
2021/06/24 06:37:42;;;;;;;28.15;18.00;;;15.60;99.90;;;;;;5095391;28;20028;-67
2021/06/24 06:40:08;;;;;;;39.80;19.80;;;15.60;99.90;;;;;;5094609;28;20085;-67
2021/06/24 06:42:33;;;;;;;28.98;18.88;;;15.60;99.90;;;;;;5094683;28;20039;-67
2021/06/24 06:44:59;;;;;;;33.58;19.30;;;15.60;99.90;;;;;;5095242;28;20027;-72
2021/06/24 06:47:24;;;;;;;29.80;18.58;;;15.70;99.90;;;;;;5095134;28;20069;-73
2021/06/24 06:49:50;;;;;;;30.08;18.33;;;15.80;99.90;;;;;;5094004;28;20036;-73
2021/06/24 06:52:15;;;;;;;28.10;18.33;;;15.90;99.90;;;;;;5093711;28;20024;-72
2021/06/24 06:54:41;;;;;;;33.15;18.92;;;15.90;99.90;;;;;;5094021;28;20554;-72
2021/06/24 06:57:06;;;;;;;28.92;18.45;;;15.90;99.90;;;;;;5088011;28;20028;-72
2021/06/24 06:59:34;;;;;;;31.33;18.27;;;15.90;99.90;;;;;;5074555;28;20048;-72
2021/06/24 07:02:00;;;;;;;32.83;19.25;;;16.00;99.90;;;;;;5092837;28;20423;-72
2021/06/24 07:04:26;;;;;;;30.42;19.00;;;16.00;99.90;;;;;;5094011;28;20077;-73
2021/06/24 07:06:51;;;;;;;27.45;18.58;;;16.10;99.90;;;;;;5094219;28;20091;-72
2021/06/24 07:09:18;;;;;;;28.23;18.10;;;16.10;99.90;;;;;;5091749;28;20073;-72
2021/06/24 07:11:43;;;;;;;29.65;18.30;;;16.20;99.90;;;;;;5093651;28;20012;-73
2021/06/24 07:14:09;;;;;;;24.17;17.48;;;16.20;99.90;;;;;;5092444;28;20433;-73
2021/06/24 07:16:35;;;;;;;27.30;17.80;;;16.30;99.90;;;;;;5093414;28;20024;-72
2021/06/24 07:19:00;;;;;;;29.40;18.33;;;16.40;99.90;;;;;;5092949;28;20489;-72
2021/06/24 07:21:26;;;;;;;25.75;18.77;;;16.30;99.90;;;;;;5091777;28;20423;-72
2021/06/24 07:23:51;;;;;;;26.90;18.35;;;16.30;99.90;;;;;;5092996;28;20031;-74
2021/06/24 07:26:17;;;;;;;29.33;19.77;;;16.30;99.90;;;;;;5093513;28;20385;-73
2021/06/24 07:28:43;;;;;;;28.95;19.67;;;16.20;99.90;;;;;;5093638;28;20021;-73
2021/06/24 07:31:08;;;;;;;29.67;18.75;;;16.20;99.90;;;;;;5093367;28;20028;-73
2021/06/24 07:33:34;;;;;;;29.55;18.33;;;16.30;99.90;;;;;;5092697;28;20465;-73
2021/06/24 07:36:01;;;;;;;28.75;18.58;;;16.40;99.90;;;;;;5093809;28;20431;-73
2021/06/24 07:38:35;;;;;;;28.77;18.55;;;16.60;99.90;;;;;;5093158;28;20032;-72
2021/06/24 07:41:01;;;;;;;29.83;20.52;;;16.40;99.90;;;;;;5093235;28;20036;-73
2021/06/24 07:43:26;;;;;;;33.00;19.60;;;16.30;99.90;;;;;;5094031;28;20032;-72
2021/06/24 07:45:52;;;;;;;27.70;19.30;;;16.40;99.90;;;;;;5092853;28;20020;-74
2021/06/24 07:48:17;;;;;;;26.35;18.85;;;16.60;99.90;;;;;;5092046;28;20028;-72
2021/06/24 07:50:43;;;;;;;32.25;20.00;;;16.60;99.90;;;;;;5092849;28;20629;-73
2021/06/24 07:53:09;;;;;;;32.60;19.05;;;16.70;99.90;;;;;;5090068;28;20028;-73
2021/06/24 07:55:35;;;;;;;30.73;18.67;;;16.80;99.90;;;;;;5093424;28;20028;-73
2021/06/24 07:58:03;;;;;;;29.70;18.67;;;17.00;99.90;;;;;;5091963;28;20046;-72
2021/06/24 08:00:29;;;;;;;27.02;18.10;;;17.10;99.90;;;;;;5091882;28;20123;-73
2021/06/24 08:02:55;;;;;;;27.45;17.85;;;17.10;99.90;;;;;;5093186;28;20024;-73
2021/06/24 08:05:20;;;;;;;29.25;19.10;;;17.10;99.90;;;;;;5092824;28;20109;-73
2021/06/24 08:07:48;;;;;;;26.58;17.77;;;16.90;99.90;;;;;;5092549;28;20059;-73
2021/06/24 08:10:15;;;;;;;24.50;17.33;;;17.10;99.90;;;;;;5092646;28;20039;-73
2021/06/24 08:12:42;;;;;;;27.63;18.15;;;17.10;99.90;;;;;;5091520;28;20024;-73
2021/06/24 08:15:09;;;;;;;35.85;19.33;;;17.10;99.90;;;;;;5092887;28;20578;-73
2021/06/24 08:17:35;;;;;;;27.08;19.65;;;17.10;99.90;;;;;;5092087;28;20051;-73
2021/06/24 08:20:00;;;;;;;25.67;17.85;;;17.30;99.90;;;;;;5092799;28;20116;-73
2021/06/24 08:22:28;;;;;;;26.33;18.13;;;17.50;99.90;;;;;;5091270;28;20036;-73
2021/06/24 08:24:53;;;;;;;23.73;17.17;;;17.70;99.90;;;;;;5093094;28;20020;-73
2021/06/24 08:27:19;;;;;;;29.45;17.40;;;17.80;99.90;;;;;;5091877;28;20477;-73
2021/06/24 08:29:45;;;;;;;22.50;16.27;;;18.20;99.90;;;;;;5050020;28;20032;-72
2021/06/24 08:32:11;;;;;;;24.92;16.15;;;18.30;99.90;;;;;;5091509;28;20112;-72
2021/06/24 08:34:36;;;;;;;22.05;16.15;;;18.80;99.90;;;;;;5092691;28;20029;-72
2021/06/24 08:37:02;;;;;;;24.27;15.93;;;19.30;99.90;;;;;;5092516;28;20028;-72
2021/06/24 08:39:28;;;;;;;20.20;13.48;;;20.20;99.90;;;;;;5093026;28;20027;-73
2021/06/24 08:41:54;;;;;;;18.55;12.77;;;20.90;99.90;;;;;;5093634;28;20051;-73
2021/06/24 08:44:20;;;;;;;21.83;12.65;;;21.10;99.90;;;;;;5096303;28;20069;-73
2021/06/24 08:46:47;;;;;;;24.30;13.57;;;21.10;99.90;;;;;;5096095;28;20024;-73
2021/06/24 08:49:15;;;;;;;20.42;12.68;;;22.00;99.90;;;;;;5096279;28;20099;-72
2021/06/24 08:51:40;;;;;;;20.73;12.10;;;22.80;99.90;;;;;;5096642;28;20032;-73
2021/06/24 08:54:06;;;;;;;16.10;12.30;;;22.70;99.90;;;;;;5096682;28;20027;-73
2021/06/24 08:56:33;;;;;;;18.55;12.48;;;22.10;99.90;;;;;;5096182;28;20063;-73
2021/06/24 08:58:58;;;;;;;15.80;12.25;;;21.60;99.90;;;;;;5096000;28;20033;-73
2021/06/24 09:01:49;;;;;;;19.95;13.30;;;21.20;99.90;;;;;;5096265;28;20035;-73
2021/06/24 09:04:18;;;;;;;18.90;13.52;;;20.90;99.90;;;;;;5096066;28;20024;-73
2021/06/24 09:06:44;;;;;;;15.90;13.00;;;20.50;99.90;;;;;;5094739;28;20016;-73
2021/06/24 09:09:09;;;;;;;16.85;12.73;;;20.80;99.90;;;;;;5096551;28;20020;-73
2021/06/24 09:11:35;;;;;;;21.38;13.25;;;21.30;99.90;;;;;;5096547;28;20023;-73
2021/06/24 09:14:12;;;;;;;17.25;12.77;;;21.50;99.90;;;;;;5095310;28;20031;-73
2021/06/24 09:16:41;;;;;;;15.10;12.25;;;21.80;99.90;;;;;;5096144;28;20016;-73
2021/06/24 09:19:24;;;;;;;19.67;11.98;;;22.00;99.90;;;;;;5095923;28;20031;-73
2021/06/24 09:22:13;;;;;;;20.80;12.40;;;22.40;99.90;;;;;;5096482;28;20103;-73
2021/06/24 09:24:41;;;;;;;23.58;12.15;;;22.20;99.90;;;;;;5075606;28;20031;-73
2021/06/24 09:27:24;;;;;;;20.52;12.15;;;22.20;99.90;;;;;;5075888;28;20025;-74
2021/06/24 09:29:51;;;;;;;15.00;11.48;;;23.00;99.90;;;;;;5096261;28;20026;-73
2021/06/24 09:32:36;;;;;;;16.73;11.70;;;22.80;99.90;;;;;;5095564;28;20032;-73
2021/06/24 09:35:04;;;;;;;19.70;12.13;;;22.20;99.90;;;;;;5095823;28;20016;-73
2021/06/24 09:37:57;;;;;;;17.80;13.43;;;22.60;99.90;;;;;;5095144;28;20020;-73
2021/06/24 09:40:35;;;;;;;18.35;12.95;;;22.70;99.90;;;;;;5075516;28;20039;-74
2021/06/24 09:43:00;;;;;;;15.65;12.93;;;22.30;99.90;;;;;;5087167;28;20055;-73
2021/06/24 09:45:26;;;;;;;19.50;13.23;;;22.00;99.90;;;;;;5095299;28;20020;-73
2021/06/24 09:48:06;;;;;;;18.45;13.30;;;21.60;99.90;;;;;;5094506;28;20107;-73
2021/06/24 09:50:32;;;;;;;16.30;12.93;;;21.70;99.90;;;;;;5093775;28;20070;-74
2021/06/24 09:53:13;;;;;;;20.15;13.00;;;21.80;99.90;;;;;;5093482;28;20430;-73
2021/06/24 09:55:40;;;;;;;16.52;12.02;;;21.60;99.90;;;;;;5095078;28;20077;-73
2021/06/24 09:58:15;;;;;;;19.15;12.57;;;21.60;99.90;;;;;;5094877;28;20073;-73
2021/06/24 10:00:51;;;;;;;22.85;13.50;;;20.90;99.90;;;;;;5093486;28;20123;-73
2021/06/24 10:03:17;;;;;;;18.00;13.70;;;20.90;99.90;;;;;;5093658;28;20028;-73
2021/06/24 10:05:44;;;;;;;22.85;14.02;;;21.20;99.90;;;;;;5094717;28;20431;-73
2021/06/24 10:08:11;;;;;;;20.33;13.00;;;21.10;99.90;;;;;;5094193;28;20020;-73
2021/06/24 10:10:39;;;;;;;18.40;12.70;;;21.10;99.90;;;;;;5094584;28;20099;-73
2021/06/24 10:13:06;;;;;;;20.38;13.45;;;21.10;99.90;;;;;;5093533;28;20050;-73
2021/06/24 10:15:33;;;;;;;18.80;14.18;;;21.30;99.90;;;;;;5094091;28;20028;-73
2021/06/24 10:17:59;;;;;;;17.80;13.40;;;21.20;99.90;;;;;;5093123;28;20459;-73
2021/06/24 10:20:32;;;;;;;20.08;14.43;;;21.40;99.90;;;;;;5094479;28;20039;-73
2021/06/24 10:23:09;;;;;;;21.87;15.07;;;21.40;99.90;;;;;;5094689;28;20499;-73
2021/06/24 10:25:37;;;;;;;21.25;14.07;;;21.80;99.90;;;;;;5093457;28;20028;-73
2021/06/24 10:28:04;;;;;;;22.20;14.70;;;21.90;99.90;;;;;;5093468;28;20065;-73
2021/06/24 10:30:38;;;;;;;18.05;15.73;;;22.00;99.90;;;;;;5093127;28;20154;-73
2021/06/24 10:33:09;;;;;;;18.58;15.18;;;22.20;99.90;;;;;;5092392;28;20493;-73
2021/06/24 10:35:37;;;;;;;20.60;15.20;;;22.30;99.90;;;;;;5094444;28;20024;-73
2021/06/24 10:38:04;;;;;;;19.60;15.18;;;23.20;99.90;;;;;;5093113;28;20024;-73
2021/06/24 10:40:34;;;;;;;23.48;16.85;;;23.00;99.90;;;;;;5094143;28;20024;-73
2021/06/24 10:45:44;;;;;;;23.77;19.25;;;22.40;99.90;;;;;;5090703;28;20443;-73
2021/06/24 10:48:28;;;;;;;23.00;18.23;;;22.30;99.90;;;;;;5071168;28;20370;-73
2021/06/24 10:51:11;;;;;;;22.35;18.08;;;22.40;99.90;;;;;;5070559;28;20071;-73
2021/06/24 10:53:47;;;;;;;20.70;18.38;;;22.30;99.90;;;;;;5070333;28;20024;-72
2021/06/24 10:56:22;;;;;;;27.10;19.65;;;22.60;99.90;;;;;;5089485;28;20139;-73
2021/06/24 10:58:47;;;;;;;22.40;18.52;;;22.50;99.90;;;;;;5089270;28;20024;-73
2021/06/24 11:01:13;;;;;;;22.85;17.67;;;22.50;99.90;;;;;;5088912;28;20397;-73
2021/06/24 11:03:41;;;;;;;21.17;17.23;;;22.60;99.90;;;;;;5090562;28;20379;-73
2021/06/24 11:06:27;;;;;;;20.58;17.27;;;21.90;99.90;;;;;;5076803;28;20028;-73
2021/06/24 11:09:12;;;;;;;22.50;17.42;;;22.30;99.90;;;;;;5087629;28;20077;-73
2021/06/24 11:11:42;;;;;;;22.88;17.25;;;22.40;99.90;;;;;;5090317;28;20107;-73
2021/06/24 11:14:08;;;;;;;21.33;18.30;;;22.50;99.90;;;;;;5086577;28;20059;-73
2021/06/24 11:16:35;;;;;;;22.73;20.27;;;22.60;99.90;;;;;;5088908;28;20056;-72
2021/06/24 11:19:06;;;;;;;27.35;20.88;;;22.10;99.90;;;;;;5087155;28;20024;-72
2021/06/24 11:24:18;;;;;;;22.27;19.52;;;21.70;99.90;;;;;;5110292;27;20843;-73
2021/06/24 11:26:47;;;;;;;24.50;18.80;;;21.50;99.90;;;;;;5096907;28;20023;-72
2021/06/24 11:29:50;;;;;;;22.05;17.73;;;21.30;99.90;;;;;;5089539;28;20070;-73
2021/06/24 11:32:13;;;;;;;20.90;18.73;;;21.30;99.90;;;;;;5089183;28;20072;-72
2021/06/24 11:34:51;;;;;;;24.88;19.15;;;21.00;99.90;;;;;;5072468;28;20063;-72
2021/06/24 11:37:21;;;;;;;21.17;17.13;;;21.00;99.90;;;;;;5101482;28;20035;-67
2021/06/24 11:39:53;;;;;;;24.30;19.23;;;21.30;99.90;;;;;;5107232;28;20032;-67
2021/06/24 11:42:26;;;;;;;25.55;21.67;;;21.30;99.90;;;;;;5089623;28;20031;-67
2021/06/24 11:44:53;;;;;;;24.33;18.58;;;21.30;99.90;;;;;;5090070;28;20115;-67
2021/06/24 12:04:29;;;;;;;20.65;17.65;;;21.10;99.90;;;;;;5052751;28;20441;-66
2021/06/24 12:07:01;;;;;;;22.83;18.33;;;21.30;99.90;;;;;;5069916;28;20037;-69
2021/06/24 12:09:38;;;;;;;26.38;18.20;;;21.20;99.90;;;;;;5069713;28;20078;-68
2021/06/24 12:12:04;;;;;;;22.27;18.77;;;21.10;99.90;;;;;;5070155;28;20021;-69
2021/06/24 12:14:32;;;;;;;23.50;18.52;;;20.80;99.90;;;;;;5069673;28;20025;-67
2021/06/24 12:17:16;;;;;;;25.17;19.60;;;20.80;99.90;;;;;;5069768;28;20035;-69
2021/06/24 12:22:42;;;;;;;24.60;18.73;;;20.90;99.90;;;;;;5111023;27;20910;-66
2021/06/24 12:25:15;;;;;;;28.45;19.83;;;20.80;99.90;;;;;;5110769;28;20032;-69
2021/06/24 12:27:45;;;;;;;28.33;19.60;;;20.80;99.90;;;;;;5108681;28;20023;-69
2021/06/24 12:32:57;;;;;;;23.73;18.80;;;20.50;99.90;;;;;;5069237;28;20365;-67
2021/06/24 12:35:29;;;;;;;27.70;19.58;;;20.30;99.90;;;;;;5069278;28;20363;-67
2021/06/24 12:37:57;;;;;;;22.45;18.95;;;20.30;99.90;;;;;;5067540;28;20013;-67
2021/06/24 12:40:31;;;;;;;28.67;19.17;;;20.40;99.90;;;;;;5070127;28;20486;-67
2021/06/24 12:42:58;;;;;;;25.20;19.48;;;20.40;99.90;;;;;;5069666;28;20505;-67
2021/06/24 12:45:26;;;;;;;24.17;19.25;;;20.20;99.90;;;;;;5069676;28;20521;-67
2021/06/24 12:47:53;;;;;;;31.15;20.73;;;20.20;99.90;;;;;;5067195;28;20077;-67
2021/06/24 12:53:02;;;;;;;27.80;18.42;;;20.20;99.90;;;;;;5110122;27;20359;-67
2021/06/24 12:55:48;;;;;;;23.27;18.75;;;20.30;99.90;;;;;;5109859;28;20027;-68
2021/06/24 12:58:31;;;;;;;25.42;17.95;;;20.40;99.90;;;;;;5109502;28;20028;-67
2021/06/24 13:01:15;;;;;;;27.27;17.63;;;20.40;99.90;;;;;;5110243;28;20052;-69